Time;durP1;ratioP1;P1;durP2;ratioP2;P2;SDS_P1;SDS_P2;PMS_P1;PMS_P2;Temp;Humidity;BMP_temperature;BMP_pressure;BME280_temperature;BME280_humidity;BME280_pressure;Samples;Min_cycle;Max_cycle;Signal;HPM_P1;HPM_P2
2021/12/12 00:01:38;;;;;;;0.30;0.10;;;1.20;99.90;;;;;;5071065;28;20727;-87
2021/12/12 00:04:13;;;;;;;0.70;0.50;;;1.10;99.90;;;;;;5071135;28;20549;-86
2021/12/12 00:06:43;;;;;;;0.30;0.10;;;1.20;99.90;;;;;;5071074;28;21077;-86
2021/12/12 00:09:13;;;;;;;1.17;0.67;;;1.10;99.90;;;;;;5068471;28;20467;-87
2021/12/12 00:11:42;;;;;;;0.30;0.10;;;1.10;99.90;;;;;;5066242;28;20505;-87
2021/12/12 00:14:13;;;;;;;0.30;0.10;;;1.10;99.90;;;;;;5070761;28;20759;-86
2021/12/12 00:16:41;;;;;;;0.30;0.10;;;1.20;99.90;;;;;;5056231;28;20201;-87
2021/12/12 00:19:08;;;;;;;0.30;0.10;;;1.20;99.90;;;;;;5068918;28;20598;-86
2021/12/12 00:21:40;;;;;;;0.77;0.77;;;1.20;99.90;;;;;;5070973;28;20447;-86
2021/12/12 00:24:09;;;;;;;0.30;0.10;;;1.20;99.90;;;;;;5059975;28;20516;-86
2021/12/12 00:26:37;;;;;;;0.30;0.10;;;1.30;99.90;;;;;;5060042;28;20448;-88
2021/12/12 00:29:05;;;;;;;0.30;0.10;;;1.30;99.90;;;;;;5065029;28;20458;-86
2021/12/12 00:31:34;;;;;;;0.30;0.10;;;1.30;99.90;;;;;;5070919;28;21025;-87
2021/12/12 00:34:02;;;;;;;1.03;1.00;;;1.30;99.90;;;;;;5061228;28;20502;-87
2021/12/12 00:36:30;;;;;;;0.30;0.10;;;1.20;99.90;;;;;;5052044;28;20468;-87
2021/12/12 00:38:59;;;;;;;0.30;0.10;;;1.20;99.90;;;;;;5061682;28;20726;-87
2021/12/12 00:41:30;;;;;;;0.30;0.10;;;1.20;99.90;;;;;;5069959;28;20689;-87
2021/12/12 00:44:00;;;;;;;0.30;0.10;;;1.20;99.90;;;;;;5072805;28;20226;-88
2021/12/12 00:46:27;;;;;;;0.30;0.10;;;1.20;99.90;;;;;;5077871;28;20189;-87
2021/12/12 00:48:57;;;;;;;0.30;0.10;;;1.30;99.90;;;;;;5083806;28;20602;-87
2021/12/12 00:51:29;;;;;;;0.40;0.28;;;1.20;99.90;;;;;;5067760;28;20192;-87
2021/12/12 00:53:57;;;;;;;0.30;0.10;;;1.20;99.90;;;;;;5069024;28;20210;-87
2021/12/12 00:56:26;;;;;;;0.30;0.10;;;1.20;99.90;;;;;;5070953;28;20442;-87
2021/12/12 00:58:54;;;;;;;0.37;0.27;;;1.20;99.90;;;;;;5069860;28;20201;-87
2021/12/12 01:01:24;;;;;;;0.30;0.20;;;1.30;99.90;;;;;;5070979;28;20501;-88
2021/12/12 01:03:55;;;;;;;1.77;1.67;;;1.30;99.90;;;;;;5069556;28;20475;-87
2021/12/12 01:06:25;;;;;;;0.30;0.20;;;1.40;99.90;;;;;;5064694;28;20591;-87
2021/12/12 01:08:55;;;;;;;0.30;0.20;;;1.40;99.90;;;;;;5068492;28;20455;-88
2021/12/12 01:11:26;;;;;;;0.30;0.20;;;1.40;99.90;;;;;;5066627;28;20255;-87
2021/12/12 01:13:54;;;;;;;0.30;0.10;;;1.40;99.90;;;;;;5059221;28;20612;-88
2021/12/12 01:16:26;;;;;;;0.73;0.73;;;1.40;99.90;;;;;;5067529;28;20455;-88
2021/12/12 01:18:59;;;;;;;1.00;0.65;;;1.40;99.90;;;;;;5068472;28;20270;-87
2021/12/12 01:21:33;;;;;;;0.30;0.10;;;1.30;99.90;;;;;;5070321;28;20253;-88
2021/12/12 01:24:04;;;;;;;0.30;0.20;;;1.30;99.90;;;;;;5064329;28;20275;-87
2021/12/12 01:26:32;;;;;;;0.50;0.40;;;1.20;99.90;;;;;;5064004;28;20611;-87
2021/12/12 01:29:01;;;;;;;0.30;0.10;;;1.20;99.90;;;;;;5056948;28;20462;-87
2021/12/12 01:31:32;;;;;;;0.30;0.10;;;1.20;99.90;;;;;;5068283;28;20284;-88
2021/12/12 01:34:10;;;;;;;0.50;0.30;;;1.20;99.90;;;;;;5068144;28;20584;-88
2021/12/12 01:36:49;;;;;;;0.30;0.23;;;1.10;99.90;;;;;;5063881;28;20521;-87
2021/12/12 01:39:21;;;;;;;0.30;0.10;;;1.20;99.90;;;;;;5064816;28;20479;-89
2021/12/12 01:41:53;;;;;;;0.30;0.10;;;1.20;99.90;;;;;;5081542;28;20448;-87
2021/12/12 01:44:23;;;;;;;0.30;0.10;;;1.10;99.90;;;;;;5077427;28;20238;-87
2021/12/12 01:46:57;;;;;;;0.57;0.57;;;1.20;99.90;;;;;;5065969;28;20198;-88
2021/12/12 01:49:27;;;;;;;0.30;0.10;;;1.20;99.90;;;;;;5053668;28;20584;-87
2021/12/12 01:51:57;;;;;;;0.30;0.20;;;1.10;99.90;;;;;;5067818;28;20517;-87
2021/12/12 01:54:30;;;;;;;0.30;0.10;;;1.10;99.90;;;;;;5065163;28;20209;-87
2021/12/12 01:57:01;;;;;;;0.30;0.15;;;1.10;99.90;;;;;;5056320;28;20257;-88
2021/12/12 01:59:34;;;;;;;0.40;0.37;;;1.10;99.90;;;;;;5067769;28;20265;-88
2021/12/12 02:02:06;;;;;;;0.63;0.63;;;1.10;99.90;;;;;;5066196;28;21231;-88
2021/12/12 02:04:38;;;;;;;0.50;0.50;;;1.20;99.90;;;;;;5069321;28;20267;-88
2021/12/12 02:07:09;;;;;;;0.30;0.10;;;1.20;99.90;;;;;;5056142;28;20500;-88
2021/12/12 02:09:36;;;;;;;0.30;0.10;;;1.20;99.90;;;;;;5066392;28;20500;-87
2021/12/12 02:12:05;;;;;;;0.30;0.10;;;1.20;99.90;;;;;;5068386;28;20250;-88
2021/12/12 02:14:36;;;;;;;0.30;0.10;;;1.20;99.90;;;;;;5068861;28;20948;-87
2021/12/12 02:17:09;;;;;;;0.40;0.30;;;1.20;99.90;;;;;;5069081;28;20208;-88
2021/12/12 02:19:44;;;;;;;0.30;0.10;;;1.20;99.90;;;;;;5068964;28;20453;-87
2021/12/12 02:22:32;;;;;;;0.30;0.10;;;1.20;99.90;;;;;;5069873;28;20233;-88
2021/12/12 02:35:53;;;;;;;0.50;0.50;;;1.00;99.90;;;;;;5073527;28;20264;-88
2021/12/12 02:38:25;;;;;;;0.30;0.10;;;1.00;99.90;;;;;;5088559;28;20626;-87
2021/12/12 02:40:54;;;;;;;0.50;0.50;;;0.90;99.90;;;;;;5077287;28;20199;-86
2021/12/12 02:43:25;;;;;;;0.40;0.40;;;0.90;99.90;;;;;;5070838;28;20625;-87
2021/12/12 02:45:55;;;;;;;0.30;0.10;;;0.80;99.90;;;;;;5064925;28;20287;-86
2021/12/12 02:48:31;;;;;;;0.30;0.20;;;0.70;99.90;;;;;;5070063;28;20204;-88
2021/12/12 02:51:02;;;;;;;0.30;0.10;;;0.70;99.90;;;;;;5070119;28;20202;-87
2021/12/12 02:53:33;;;;;;;0.30;0.10;;;0.70;99.90;;;;;;5067729;28;20246;-87
2021/12/12 02:56:04;;;;;;;0.95;0.60;;;0.70;99.90;;;;;;5069323;28;20238;-87
2021/12/12 02:58:31;;;;;;;0.43;0.30;;;0.70;99.90;;;;;;5071311;28;20288;-87
2021/12/12 03:01:06;;;;;;;0.30;0.10;;;0.80;99.90;;;;;;5073269;28;20201;-88
2021/12/12 03:03:36;;;;;;;0.30;0.10;;;0.80;99.90;;;;;;5070094;28;20288;-87
2021/12/12 03:06:05;;;;;;;0.30;0.10;;;0.80;99.90;;;;;;5070763;28;20212;-87
2021/12/12 03:08:35;;;;;;;0.30;0.10;;;0.80;99.90;;;;;;5063767;28;20195;-87
2021/12/12 03:11:02;;;;;;;0.30;0.10;;;0.80;99.90;;;;;;5069584;28;20618;-87
2021/12/12 03:13:29;;;;;;;0.30;0.15;;;0.80;99.90;;;;;;5072468;28;20194;-87
2021/12/12 03:15:56;;;;;;;0.30;0.20;;;0.90;99.90;;;;;;5066176;28;20532;-88
2021/12/12 03:18:26;;;;;;;0.30;0.10;;;0.90;99.90;;;;;;5067924;28;20196;-86
2021/12/12 03:20:58;;;;;;;1.33;1.23;;;0.90;99.90;;;;;;5071850;28;20261;-88
2021/12/12 03:23:28;;;;;;;0.30;0.10;;;0.90;99.90;;;;;;5072263;28;20228;-87
2021/12/12 03:26:01;;;;;;;0.30;0.10;;;0.90;99.90;;;;;;5071448;28;20216;-88
2021/12/12 03:28:30;;;;;;;0.30;0.10;;;0.90;99.90;;;;;;5070587;28;20259;-87
2021/12/12 03:31:01;;;;;;;0.30;0.10;;;0.90;99.90;;;;;;5061783;28;20236;-87
2021/12/12 03:33:32;;;;;;;0.30;0.10;;;1.00;99.90;;;;;;5086235;28;20258;-88
2021/12/12 03:36:00;;;;;;;0.30;0.10;;;1.00;99.90;;;;;;5084340;28;20260;-87
2021/12/12 03:38:30;;;;;;;0.30;0.20;;;1.00;99.90;;;;;;5079338;28;20200;-88
2021/12/12 03:41:01;;;;;;;0.30;0.10;;;1.10;99.90;;;;;;5063481;28;20684;-88
2021/12/12 03:43:28;;;;;;;0.30;0.10;;;1.10;99.90;;;;;;5059080;28;20484;-88
2021/12/12 03:45:56;;;;;;;2.83;1.17;;;1.10;99.90;;;;;;5064159;28;20585;-88
2021/12/12 03:48:26;;;;;;;0.30;0.20;;;1.10;99.90;;;;;;5072186;28;20438;-87
2021/12/12 03:50:56;;;;;;;1.30;1.05;;;1.20;99.90;;;;;;5071493;28;20458;-88
2021/12/12 03:53:24;;;;;;;0.30;0.10;;;1.10;99.90;;;;;;5071999;28;20202;-87
2021/12/12 03:55:52;;;;;;;0.30;0.10;;;1.20;99.90;;;;;;5057974;28;20197;-87
2021/12/12 03:58:20;;;;;;;0.45;0.35;;;1.20;99.90;;;;;;5070878;28;20245;-88
2021/12/12 04:00:51;;;;;;;0.50;0.40;;;1.20;99.90;;;;;;5071452;28;20567;-87
2021/12/12 04:03:20;;;;;;;0.40;0.40;;;1.20;99.90;;;;;;5071232;28;20535;-87
2021/12/12 04:05:48;;;;;;;0.30;0.10;;;1.20;99.90;;;;;;5071251;28;20266;-87
2021/12/12 04:08:16;;;;;;;0.30;0.30;;;1.20;99.90;;;;;;5071731;28;20484;-88
2021/12/12 04:10:44;;;;;;;0.30;0.10;;;1.20;99.90;;;;;;5068903;28;20745;-88
2021/12/12 04:13:11;;;;;;;1.50;1.17;;;1.20;99.90;;;;;;5070797;28;20208;-87
2021/12/12 04:15:40;;;;;;;0.30;0.10;;;1.10;99.90;;;;;;5071512;28;20196;-88
2021/12/12 04:18:07;;;;;;;0.60;0.60;;;1.10;99.90;;;;;;5058374;28;20258;-87
2021/12/12 04:20:37;;;;;;;0.35;0.20;;;1.10;99.90;;;;;;5058734;28;20195;-88
2021/12/12 04:23:04;;;;;;;0.30;0.10;;;1.10;99.90;;;;;;5059654;28;20226;-88
2021/12/12 04:25:31;;;;;;;0.30;0.10;;;1.10;99.90;;;;;;5071231;28;20596;-88
2021/12/12 04:27:58;;;;;;;0.30;0.10;;;1.10;99.90;;;;;;5070718;28;20509;-88
2021/12/12 04:30:25;;;;;;;0.30;0.10;;;1.10;99.90;;;;;;5082075;28;20228;-87
2021/12/12 04:32:54;;;;;;;0.40;0.30;;;1.10;99.90;;;;;;5083016;28;20468;-88
2021/12/12 04:35:26;;;;;;;0.30;0.10;;;1.10;99.90;;;;;;5075570;28;20269;-88
2021/12/12 04:37:53;;;;;;;0.30;0.10;;;1.20;99.90;;;;;;5062666;28;20655;-90
2021/12/12 04:40:24;;;;;;;0.40;0.32;;;1.20;99.90;;;;;;5068396;28;20540;-88
2021/12/12 04:42:55;;;;;;;0.40;0.30;;;1.20;99.90;;;;;;5070582;28;20249;-88
2021/12/12 04:45:39;;;;;;;0.30;0.15;;;1.20;99.90;;;;;;5067330;28;20246;-88
2021/12/12 04:50:59;;;;;;;0.30;0.10;;;1.20;99.90;;;;;;5065688;28;20247;-87
2021/12/12 04:53:30;;;;;;;0.30;0.20;;;1.30;99.90;;;;;;5070671;28;20200;-87
2021/12/12 04:56:03;;;;;;;0.30;0.10;;;1.30;99.90;;;;;;5058434;28;20266;-87
2021/12/12 04:58:39;;;;;;;0.30;0.10;;;1.30;99.90;;;;;;5059983;28;20270;-89
2021/12/12 05:01:11;;;;;;;0.30;0.10;;;1.30;99.90;;;;;;5066044;28;21096;-87
2021/12/12 05:03:47;;;;;;;1.95;0.60;;;1.30;99.90;;;;;;5061931;28;20281;-87
2021/12/12 05:06:20;;;;;;;0.30;0.15;;;1.30;99.90;;;;;;5062981;28;20193;-87
2021/12/12 05:08:53;;;;;;;0.30;0.10;;;1.30;99.90;;;;;;5064614;28;20433;-86
2021/12/12 05:11:25;;;;;;;1.88;0.90;;;1.30;99.90;;;;;;5067489;28;20249;-88
2021/12/12 05:13:55;;;;;;;0.30;0.10;;;1.30;99.90;;;;;;5069380;28;20607;-87
2021/12/12 05:16:27;;;;;;;0.45;0.38;;;1.30;99.90;;;;;;5069301;28;20233;-88
2021/12/12 05:19:04;;;;;;;0.40;0.30;;;1.30;99.90;;;;;;5070123;28;20254;-86
2021/12/12 05:21:35;;;;;;;0.30;0.20;;;1.30;99.90;;;;;;5070185;28;20282;-87
2021/12/12 05:24:07;;;;;;;3.63;2.15;;;1.30;99.90;;;;;;5070669;28;20270;-87
2021/12/12 05:26:37;;;;;;;0.30;0.10;;;1.30;99.90;;;;;;5079714;28;20265;-87
2021/12/12 05:29:08;;;;;;;1.15;1.15;;;1.30;99.90;;;;;;5080878;28;20222;-87
2021/12/12 05:31:36;;;;;;;0.30;0.20;;;1.30;99.90;;;;;;5073719;28;20820;-87
2021/12/12 05:34:06;;;;;;;0.30;0.10;;;1.40;99.90;;;;;;5056962;28;20199;-86
2021/12/12 05:36:36;;;;;;;0.30;0.10;;;1.40;99.90;;;;;;5068336;28;20196;-86
2021/12/12 05:39:06;;;;;;;0.30;0.10;;;1.40;99.90;;;;;;5067252;28;20214;-87
2021/12/12 05:41:33;;;;;;;0.40;0.20;;;1.40;99.90;;;;;;5066176;28;20207;-87
2021/12/12 05:44:02;;;;;;;0.30;0.10;;;1.30;99.90;;;;;;5068479;28;20525;-87
2021/12/12 05:46:29;;;;;;;0.30;0.20;;;1.30;99.90;;;;;;5069499;28;20203;-88
2021/12/12 05:48:59;;;;;;;0.30;0.10;;;1.30;99.90;;;;;;5052122;28;20239;-88
2021/12/12 05:51:29;;;;;;;1.95;0.63;;;1.30;99.90;;;;;;5063606;28;20199;-87
2021/12/12 05:53:56;;;;;;;0.40;0.30;;;1.30;99.90;;;;;;5062749;28;20258;-88
2021/12/12 05:56:24;;;;;;;0.30;0.10;;;1.40;99.90;;;;;;5061398;28;20206;-88
2021/12/12 05:58:51;;;;;;;0.30;0.20;;;1.30;99.90;;;;;;5058104;28;20213;-88
2021/12/12 06:01:19;;;;;;;0.40;0.40;;;1.40;99.90;;;;;;5062587;28;20204;-88
2021/12/12 06:03:48;;;;;;;0.30;0.10;;;1.40;99.90;;;;;;5060493;28;20992;-88
2021/12/12 06:06:18;;;;;;;0.30;0.10;;;1.40;99.90;;;;;;5054235;28;20472;-87
2021/12/12 06:08:48;;;;;;;0.60;0.40;;;1.50;99.90;;;;;;5064533;28;20596;-88
2021/12/12 06:11:17;;;;;;;0.50;0.30;;;1.50;99.90;;;;;;5068280;28;20512;-88
2021/12/12 06:13:46;;;;;;;0.43;0.43;;;1.50;99.90;;;;;;5067231;28;20258;-88
2021/12/12 06:16:18;;;;;;;0.30;0.10;;;1.50;99.90;;;;;;5052839;28;20454;-88
2021/12/12 06:18:48;;;;;;;0.30;0.10;;;1.50;99.90;;;;;;5061022;28;20259;-88
2021/12/12 06:21:15;;;;;;;0.43;0.43;;;1.50;99.90;;;;;;5063747;28;20201;-88
2021/12/12 06:23:43;;;;;;;0.30;0.10;;;1.50;99.90;;;;;;5073452;28;20448;-88
2021/12/12 06:26:11;;;;;;;0.30;0.10;;;1.50;99.90;;;;;;5087508;28;20205;-87
2021/12/12 06:28:42;;;;;;;0.30;0.10;;;1.50;99.90;;;;;;5072217;28;20436;-88
2021/12/12 06:31:09;;;;;;;0.30;0.10;;;1.50;99.90;;;;;;5062368;28;20229;-88
2021/12/12 06:33:39;;;;;;;0.30;0.10;;;1.40;99.90;;;;;;5060530;28;20200;-93
2021/12/12 06:36:06;;;;;;;0.40;0.40;;;1.40;99.90;;;;;;5068037;28;20227;-89
2021/12/12 06:38:34;;;;;;;0.73;0.40;;;1.40;99.90;;;;;;5064142;28;20247;-91
2021/12/12 06:41:02;;;;;;;0.30;0.10;;;1.40;99.90;;;;;;5067735;28;20204;-88
2021/12/12 06:43:32;;;;;;;0.30;0.10;;;1.40;99.90;;;;;;5059355;28;20727;-88
2021/12/12 06:45:59;;;;;;;0.52;0.52;;;1.40;99.90;;;;;;5062525;28;20226;-88
2021/12/12 06:48:26;;;;;;;1.13;0.82;;;1.40;99.90;;;;;;5065966;28;20196;-88
2021/12/12 06:50:55;;;;;;;0.30;0.10;;;1.40;99.90;;;;;;5052517;28;20539;-88
2021/12/12 06:53:25;;;;;;;0.40;0.30;;;1.40;99.90;;;;;;5058925;28;20528;-88
2021/12/12 06:55:53;;;;;;;0.30;0.20;;;1.40;99.90;;;;;;5069683;28;20257;-88
2021/12/12 06:58:21;;;;;;;0.30;0.10;;;1.40;99.90;;;;;;5062898;28;20465;-88
2021/12/12 07:00:53;;;;;;;0.30;0.10;;;1.40;99.90;;;;;;5049553;28;20219;-89
2021/12/12 07:03:20;;;;;;;0.30;0.10;;;1.40;99.90;;;;;;5050992;28;20484;-89
2021/12/12 07:05:48;;;;;;;0.30;0.10;;;1.40;99.90;;;;;;5049604;28;20225;-88
2021/12/12 07:08:17;;;;;;;0.30;0.20;;;1.40;99.90;;;;;;5055380;28;20443;-89
2021/12/12 07:10:44;;;;;;;0.30;0.20;;;1.40;99.90;;;;;;5053837;28;20498;-89
2021/12/12 07:13:11;;;;;;;0.30;0.10;;;1.40;99.90;;;;;;5070815;28;20644;-89
2021/12/12 07:15:41;;;;;;;0.30;0.10;;;1.40;99.90;;;;;;5073931;28;20205;-90
2021/12/12 07:18:13;;;;;;;0.30;0.10;;;1.40;99.90;;;;;;5075599;28;20198;-89
2021/12/12 07:20:41;;;;;;;0.30;0.10;;;1.40;99.90;;;;;;5096103;28;20229;-89
2021/12/12 07:23:10;;;;;;;0.30;0.10;;;1.40;99.90;;;;;;5067966;28;20195;-89
2021/12/12 07:25:39;;;;;;;0.30;0.15;;;1.40;99.90;;;;;;5066074;28;20229;-89
2021/12/12 07:28:07;;;;;;;0.30;0.10;;;1.40;99.90;;;;;;5070665;28;20275;-89
2021/12/12 07:30:35;;;;;;;0.30;0.10;;;1.50;99.90;;;;;;5069590;28;20228;-89
2021/12/12 07:33:04;;;;;;;0.30;0.10;;;1.50;99.90;;;;;;5069699;28;20200;-89
2021/12/12 07:35:34;;;;;;;0.30;0.10;;;1.50;99.90;;;;;;5062540;28;20972;-89
2021/12/12 07:38:02;;;;;;;0.30;0.10;;;1.50;99.90;;;;;;5064686;28;20505;-89
2021/12/12 07:40:30;;;;;;;0.83;0.83;;;1.50;99.90;;;;;;5073006;28;20451;-89
2021/12/12 07:42:57;;;;;;;0.30;0.10;;;1.50;99.90;;;;;;5065450;28;20463;-89
2021/12/12 07:45:25;;;;;;;0.30;0.10;;;1.50;99.90;;;;;;5071027;28;20540;-89
2021/12/12 07:47:53;;;;;;;0.30;0.10;;;1.60;99.90;;;;;;5052290;28;20443;-89
2021/12/12 07:50:25;;;;;;;0.30;0.10;;;1.60;99.90;;;;;;5060339;28;20506;-90
2021/12/12 07:52:54;;;;;;;0.30;0.10;;;1.60;99.90;;;;;;5060134;28;20459;-89
2021/12/12 07:55:22;;;;;;;0.40;0.20;;;1.60;99.90;;;;;;5072117;28;20616;-89
2021/12/12 07:57:51;;;;;;;0.30;0.10;;;1.60;99.90;;;;;;5072819;28;20512;-89
2021/12/12 08:00:24;;;;;;;0.60;0.53;;;1.60;99.90;;;;;;5072525;28;20202;-89
2021/12/12 08:02:52;;;;;;;0.30;0.10;;;1.60;99.90;;;;;;5071092;28;20459;-88
2021/12/12 08:05:22;;;;;;;0.30;0.10;;;1.60;99.90;;;;;;5072588;28;20486;-89
2021/12/12 08:07:49;;;;;;;0.30;0.10;;;1.60;99.90;;;;;;5072601;28;20268;-89
2021/12/12 08:10:18;;;;;;;0.30;0.10;;;1.60;99.90;;;;;;5071305;28;20208;-88
2021/12/12 08:12:45;;;;;;;0.85;0.52;;;1.60;99.90;;;;;;5072646;28;20201;-89
2021/12/12 08:15:14;;;;;;;0.30;0.10;;;1.60;99.90;;;;;;5072212;28;20632;-88
2021/12/12 08:17:42;;;;;;;0.45;0.45;;;1.70;99.90;;;;;;5090906;28;20210;-89
2021/12/12 08:20:11;;;;;;;0.30;0.10;;;1.60;99.90;;;;;;5085036;28;20201;-89
2021/12/12 08:22:39;;;;;;;0.30;0.20;;;1.60;99.90;;;;;;5073577;28;20197;-90
2021/12/12 08:25:08;;;;;;;0.30;0.10;;;1.70;99.90;;;;;;5072203;28;20970;-90
2021/12/12 08:27:37;;;;;;;1.25;0.75;;;1.60;99.90;;;;;;5069954;28;20468;-91
2021/12/12 08:30:06;;;;;;;0.50;0.50;;;1.60;99.90;;;;;;5072193;28;20227;-91
2021/12/12 08:32:34;;;;;;;0.40;0.33;;;1.60;99.90;;;;;;5069426;28;20453;-89
2021/12/12 08:35:01;;;;;;;1.38;1.27;;;1.60;99.90;;;;;;5071507;28;20475;-88
2021/12/12 08:37:29;;;;;;;0.30;0.10;;;1.60;99.90;;;;;;5072478;28;20202;-89
2021/12/12 08:39:56;;;;;;;0.30;0.17;;;1.60;99.90;;;;;;5071311;28;20470;-89
2021/12/12 08:42:26;;;;;;;0.30;0.20;;;1.60;99.90;;;;;;5071669;28;20442;-89
2021/12/12 08:44:56;;;;;;;0.30;0.10;;;1.60;99.90;;;;;;5070975;28;20973;-88
2021/12/12 08:47:23;;;;;;;0.70;0.40;;;1.70;99.90;;;;;;5069222;28;20443;-89
2021/12/12 08:49:51;;;;;;;0.30;0.20;;;1.60;99.90;;;;;;5071402;28;20443;-89
2021/12/12 08:52:22;;;;;;;0.30;0.17;;;1.70;99.90;;;;;;5069759;28;20459;-89
2021/12/12 08:54:52;;;;;;;0.30;0.17;;;1.70;99.90;;;;;;5068152;28;20472;-89
2021/12/12 08:57:32;;;;;;;0.73;0.70;;;1.70;99.90;;;;;;5071525;28;20714;-89
2021/12/12 09:00:05;;;;;;;0.30;0.10;;;1.70;99.90;;;;;;5055886;28;20479;-88
2021/12/12 09:02:32;;;;;;;0.40;0.30;;;1.80;99.90;;;;;;5062186;28;20450;-88
2021/12/12 09:05:05;;;;;;;0.30;0.10;;;1.80;99.90;;;;;;5066817;28;20214;-89
2021/12/12 09:07:36;;;;;;;1.35;1.35;;;1.80;99.90;;;;;;5065621;28;20455;-89
2021/12/12 09:10:09;;;;;;;1.50;0.97;;;1.90;99.90;;;;;;5069418;28;20209;-89
2021/12/12 09:12:39;;;;;;;2.20;0.67;;;1.90;99.90;;;;;;5082513;28;20456;-89
2021/12/12 09:15:13;;;;;;;0.30;0.20;;;1.90;99.90;;;;;;5079690;28;20435;-89
2021/12/12 09:17:46;;;;;;;0.33;0.17;;;1.90;99.90;;;;;;5071982;28;20497;-89
2021/12/12 09:20:19;;;;;;;0.30;0.20;;;2.00;99.90;;;;;;5066069;28;20480;-89
2021/12/12 09:22:59;;;;;;;0.30;0.10;;;1.90;99.90;;;;;;5067615;28;20558;-89
2021/12/12 09:25:36;;;;;;;0.30;0.10;;;2.00;99.90;;;;;;5067535;28;20583;-90
2021/12/12 09:28:08;;;;;;;0.30;0.10;;;2.00;99.90;;;;;;5055207;28;20455;-89
2021/12/12 09:30:37;;;;;;;0.50;0.50;;;2.00;99.90;;;;;;5064198;28;20482;-89
2021/12/12 09:33:12;;;;;;;1.43;1.43;;;2.00;99.90;;;;;;5067026;28;20452;-90
2021/12/12 09:35:44;;;;;;;0.30;0.20;;;2.00;99.90;;;;;;5070115;28;20443;-89
2021/12/12 09:38:16;;;;;;;7.70;2.10;;;2.00;99.90;;;;;;5064461;28;20897;-90
2021/12/12 09:41:11;;;;;;;0.30;0.10;;;2.00;99.90;;;;;;5067126;28;20840;-90
2021/12/12 09:43:59;;;;;;;0.30;0.10;;;2.10;99.90;;;;;;5066259;28;20468;-89
2021/12/12 09:46:57;;;;;;;0.33;0.17;;;2.20;99.90;;;;;;5068613;28;20487;-91
2021/12/12 09:52:44;;;;;;;0.30;0.10;;;2.10;99.90;;;;;;5069479;28;20473;-93
2021/12/12 09:55:14;;;;;;;0.30;0.17;;;2.10;99.90;;;;;;5054203;28;20499;-92
2021/12/12 09:57:47;;;;;;;0.30;0.20;;;2.10;99.90;;;;;;5050448;28;20251;-92
2021/12/12 10:00:19;;;;;;;0.30;0.10;;;2.10;99.90;;;;;;5064309;28;20598;-92
2021/12/12 10:03:06;;;;;;;0.30;0.10;;;2.10;99.90;;;;;;5069259;28;20591;-91
2021/12/12 10:05:43;;;;;;;0.30;0.17;;;2.10;99.90;;;;;;5066645;28;20472;-91
2021/12/12 10:08:17;;;;;;;0.30;0.10;;;2.20;99.90;;;;;;5064210;28;20486;-93
2021/12/12 10:10:52;;;;;;;0.40;0.23;;;2.10;99.90;;;;;;5085685;28;20189;-93
2021/12/12 10:13:25;;;;;;;1.13;0.63;;;2.20;99.90;;;;;;5064873;28;20512;-91
2021/12/12 10:15:58;;;;;;;0.30;0.20;;;2.20;99.90;;;;;;5054455;28;20464;-92
2021/12/12 10:18:41;;;;;;;0.30;0.10;;;2.20;99.90;;;;;;5071158;28;20483;-91
2021/12/12 10:21:15;;;;;;;0.30;0.10;;;2.20;99.90;;;;;;5059776;28;20464;-91
2021/12/12 10:23:55;;;;;;;0.50;0.40;;;2.30;99.90;;;;;;5070255;28;20554;-93
2021/12/12 10:26:26;;;;;;;0.30;0.20;;;2.30;99.90;;;;;;5068937;28;20555;-92
2021/12/12 10:28:59;;;;;;;0.30;0.10;;;2.40;99.90;;;;;;5067361;28;21022;-93
2021/12/12 10:31:30;;;;;;;0.30;0.10;;;2.50;99.90;;;;;;5054485;28;20462;-92
2021/12/12 10:34:03;;;;;;;1.70;1.70;;;2.50;99.90;;;;;;5069723;28;20475;-93
2021/12/12 10:36:36;;;;;;;0.40;0.30;;;2.50;99.90;;;;;;5059140;28;20455;-92
2021/12/12 10:39:08;;;;;;;0.30;0.10;;;2.50;99.90;;;;;;5068033;28;20895;-92
2021/12/12 10:41:39;;;;;;;0.30;0.10;;;2.50;99.90;;;;;;5070597;28;20463;-92
2021/12/12 10:44:12;;;;;;;0.30;0.20;;;2.40;99.90;;;;;;5063179;28;20455;-91
2021/12/12 10:46:50;;;;;;;0.30;0.20;;;2.50;99.90;;;;;;5054201;28;20476;-91
2021/12/12 10:49:27;;;;;;;0.30;0.10;;;2.50;99.90;;;;;;5072196;28;20463;-92
2021/12/12 10:52:02;;;;;;;2.93;1.17;;;2.50;99.90;;;;;;5074579;28;20458;-92
2021/12/12 10:54:33;;;;;;;0.30;0.10;;;2.60;99.90;;;;;;5064323;28;20446;-92
2021/12/12 10:57:06;;;;;;;0.30;0.10;;;2.60;99.90;;;;;;5067841;28;20451;-92
2021/12/12 10:59:37;;;;;;;0.40;0.40;;;2.60;99.90;;;;;;5074262;28;21026;-92
2021/12/12 11:02:08;;;;;;;0.30;0.10;;;2.60;99.90;;;;;;5074374;28;20479;-92
2021/12/12 11:04:44;;;;;;;0.30;0.20;;;2.60;99.90;;;;;;5082230;28;20431;-91
2021/12/12 11:07:17;;;;;;;0.30;0.20;;;2.70;99.90;;;;;;5096071;28;20482;-92
2021/12/12 11:09:51;;;;;;;0.30;0.10;;;2.70;99.90;;;;;;5092598;28;20436;-92
2021/12/12 11:12:25;;;;;;;0.30;0.20;;;2.80;99.90;;;;;;5074521;28;20937;-92
2021/12/12 11:15:00;;;;;;;0.30;0.10;;;2.80;99.90;;;;;;5072977;28;20453;-92
2021/12/12 11:17:30;;;;;;;0.40;0.20;;;2.90;99.90;;;;;;5062047;28;20481;-92
2021/12/12 11:20:05;;;;;;;0.30;0.10;;;3.00;99.90;;;;;;5062802;28;20459;-91
2021/12/12 11:22:37;;;;;;;0.30;0.30;;;3.10;99.90;;;;;;5066388;28;20521;-91
2021/12/12 11:25:08;;;;;;;0.30;0.10;;;3.10;99.90;;;;;;5070028;28;20526;-92
2021/12/12 11:27:38;;;;;;;0.30;0.10;;;3.20;99.90;;;;;;5068473;28;20485;-92
2021/12/12 11:30:10;;;;;;;0.30;0.10;;;3.30;99.90;;;;;;5071438;28;20487;-93
2021/12/12 11:32:38;;;;;;;0.30;0.10;;;3.40;99.90;;;;;;5070429;28;20447;-92
2021/12/12 11:35:13;;;;;;;0.30;0.10;;;3.40;99.90;;;;;;5072271;28;20448;-92
2021/12/12 11:37:44;;;;;;;0.30;0.10;;;3.40;99.90;;;;;;5070528;28;21035;-85
2021/12/12 11:40:19;;;;;;;0.30;0.20;;;3.40;99.90;;;;;;5071062;28;21009;-85
2021/12/12 11:42:52;;;;;;;0.30;0.20;;;3.40;99.90;;;;;;5070706;28;20482;-84
2021/12/12 11:45:25;;;;;;;0.30;0.10;;;3.50;99.90;;;;;;5069255;28;21011;-84
2021/12/12 11:48:10;;;;;;;0.30;0.10;;;3.50;99.90;;;;;;5070716;28;20520;-85
2021/12/12 11:50:46;;;;;;;0.30;0.10;;;3.50;99.90;;;;;;5071975;28;20497;-86
2021/12/12 11:53:19;;;;;;;0.30;0.10;;;3.40;99.90;;;;;;5070233;28;20457;-86
2021/12/12 11:55:52;;;;;;;0.30;0.17;;;3.40;99.90;;;;;;5070422;28;21128;-85
2021/12/12 11:58:29;;;;;;;0.30;0.10;;;3.50;99.90;;;;;;5062278;28;20444;-84
2021/12/12 12:01:04;;;;;;;0.30;0.20;;;3.40;99.90;;;;;;5056643;28;20475;-85
2021/12/12 12:03:47;;;;;;;0.30;0.10;;;3.30;99.90;;;;;;5086662;28;20505;-85
2021/12/12 12:06:23;;;;;;;0.30;0.10;;;3.10;99.90;;;;;;5085742;28;20474;-86
2021/12/12 12:09:29;;;;;;;0.30;0.20;;;3.00;99.90;;;;;;5072089;28;20521;-85
2021/12/12 12:12:12;;;;;;;0.30;0.10;;;3.00;99.90;;;;;;5052245;28;20276;-86
2021/12/12 12:15:05;;;;;;;0.30;0.10;;;3.00;99.90;;;;;;5070464;28;20510;-86
2021/12/12 12:17:37;;;;;;;2.13;1.60;;;2.90;99.90;;;;;;5066705;28;20887;-86
2021/12/12 12:20:11;;;;;;;0.30;0.10;;;2.90;99.90;;;;;;5058339;28;20499;-86
2021/12/12 12:22:46;;;;;;;0.30;0.10;;;3.00;99.90;;;;;;5071839;28;20837;-87
2021/12/12 12:25:20;;;;;;;0.30;0.17;;;3.00;99.90;;;;;;5054958;28;20466;-85
2021/12/12 12:27:53;;;;;;;0.30;0.10;;;3.00;99.90;;;;;;5064491;28;20942;-83
2021/12/12 12:31:07;;;;;;;0.30;0.20;;;3.00;99.90;;;;;;5058766;28;20482;-83
2021/12/12 12:34:16;;;;;;;0.60;0.60;;;3.10;99.90;;;;;;5031958;28;20466;-85
2021/12/12 12:37:13;;;;;;;0.30;0.10;;;3.00;99.90;;;;;;5067845;28;20459;-85
2021/12/12 12:40:17;;;;;;;0.30;0.20;;;3.10;99.90;;;;;;5061041;28;20951;-85
2021/12/12 12:43:26;;;;;;;0.30;0.10;;;3.20;99.90;;;;;;5067303;28;20655;-85
2021/12/12 12:46:50;;;;;;;0.30;0.10;;;3.20;99.90;;;;;;5064028;28;20805;-84
2021/12/12 12:50:02;;;;;;;0.93;0.47;;;3.20;99.90;;;;;;5069001;28;21145;-85
2021/12/12 12:53:01;;;;;;;0.30;0.20;;;3.00;99.90;;;;;;5061090;28;20528;-85
2021/12/12 12:55:46;;;;;;;0.60;0.40;;;2.90;99.90;;;;;;5066446;28;20459;-85
2021/12/12 12:58:31;;;;;;;0.30;0.10;;;2.90;99.90;;;;;;5067299;28;20488;-85
2021/12/12 13:01:05;;;;;;;0.40;0.20;;;2.90;99.90;;;;;;5075659;28;20452;-84
2021/12/12 13:03:43;;;;;;;0.30;0.20;;;2.90;99.90;;;;;;5069808;28;20520;-85
2021/12/12 13:06:45;;;;;;;0.30;0.10;;;2.90;99.90;;;;;;5070142;28;20511;-85
2021/12/12 13:09:22;;;;;;;0.30;0.10;;;3.00;99.90;;;;;;5051021;28;20509;-85
2021/12/12 13:12:17;;;;;;;0.30;0.10;;;2.90;99.90;;;;;;5051385;28;20881;-85
2021/12/12 13:14:52;;;;;;;0.30;0.10;;;2.90;99.90;;;;;;5065608;28;20448;-85
2021/12/12 13:17:29;;;;;;;0.53;0.53;;;2.90;99.90;;;;;;5070183;28;20493;-85
2021/12/12 13:20:08;;;;;;;0.30;0.10;;;2.90;99.90;;;;;;5070647;28;20436;-84
2021/12/12 13:22:44;;;;;;;0.30;0.10;;;2.90;99.90;;;;;;5068951;28;20481;-85
2021/12/12 13:25:17;;;;;;;0.30;0.10;;;2.90;99.90;;;;;;5058446;28;20499;-85
2021/12/12 13:28:05;;;;;;;0.30;0.10;;;2.90;99.90;;;;;;5056442;28;20557;-85
2021/12/12 13:30:43;;;;;;;0.30;0.10;;;2.90;99.90;;;;;;5052202;28;20472;-87
2021/12/12 13:33:24;;;;;;;0.30;0.20;;;2.80;99.90;;;;;;5057214;28;20455;-85
2021/12/12 13:36:25;;;;;;;1.33;0.40;;;2.80;99.90;;;;;;5065593;28;20493;-84
2021/12/12 13:39:05;;;;;;;0.30;0.20;;;2.80;99.90;;;;;;5064337;28;20460;-85
2021/12/12 13:41:44;;;;;;;0.30;0.10;;;2.80;99.90;;;;;;5070476;28;20455;-85
2021/12/12 13:44:25;;;;;;;0.30;0.10;;;2.70;99.90;;;;;;5064103;28;20539;-84